createdAt,value
2017-09-07T00:00:04.121Z,66.2
2017-09-07T00:01:06.515Z,66
2017-09-07T00:02:08.905Z,66
2017-09-07T00:03:11.299Z,66.2
2017-09-07T00:04:13.688Z,66.1
2017-09-07T00:05:16.085Z,66.1
2017-09-07T00:06:18.481Z,66.1
2017-09-07T00:07:20.869Z,66.1
2017-09-07T00:08:23.256Z,66
2017-09-07T00:09:25.647Z,66
2017-09-07T00:10:28.046Z,66.2
2017-09-07T00:11:30.439Z,66.3
2017-09-07T00:12:33.173Z,65.9
2017-09-07T00:13:35.562Z,66
2017-09-07T00:14:37.953Z,66
2017-09-07T00:15:40.352Z,66.1
2017-09-07T00:16:42.744Z,66.1
2017-09-07T00:17:45.138Z,66.1
2017-09-07T00:18:47.537Z,66.2
2017-09-07T00:19:49.919Z,66.3
2017-09-07T00:20:52.319Z,66.4
2017-09-07T00:21:54.726Z,66.2
2017-09-07T00:22:57.114Z,66.2
2017-09-07T00:23:59.503Z,66.3
2017-09-07T00:25:02.251Z,66.6
2017-09-07T00:26:04.638Z,66.6
2017-09-07T00:27:07.030Z,66.6
2017-09-07T00:28:09.424Z,66.3
2017-09-07T00:29:11.823Z,66.4
2017-09-07T00:30:14.213Z,66.7
2017-09-07T00:31:16.603Z,66.5
2017-09-07T00:32:18.999Z,66.5
2017-09-07T00:33:21.390Z,66.5
2017-09-07T00:34:23.774Z,66.7
2017-09-07T00:35:26.174Z,66.3
2017-09-07T00:36:28.561Z,66.3
2017-09-07T00:37:30.958Z,66.6
2017-09-07T00:38:33.347Z,66.6
2017-09-07T00:39:35.737Z,66.7
2017-09-07T00:40:38.128Z,66.3
2017-09-07T00:41:40.528Z,66.3
2017-09-07T00:42:42.920Z,66.5
2017-09-07T00:43:45.307Z,66.4
2017-09-07T00:44:47.691Z,66.5
2017-09-07T00:45:50.094Z,66.3
2017-09-07T00:46:52.821Z,66.3
2017-09-07T00:47:55.210Z,66.4
2017-09-07T00:48:57.617Z,66.6
2017-09-07T00:50:00.337Z,66.5
2017-09-07T00:51:02.732Z,66.5
2017-09-07T00:52:05.131Z,66.6
2017-09-07T00:53:07.506Z,66.4
2017-09-07T00:54:09.901Z,66.3
2017-09-07T00:55:12.296Z,66.3
2017-09-07T00:56:14.682Z,66.1
2017-09-07T00:57:17.071Z,66.3
2017-09-07T00:58:19.455Z,66
2017-09-07T00:59:21.848Z,66.1
2017-09-07T01:00:24.247Z,66.2
2017-09-07T01:01:26.639Z,66
2017-09-07T01:02:29.036Z,65.8
2017-09-07T01:03:31.431Z,65.9
2017-09-07T01:04:33.819Z,65.8
2017-09-07T01:05:36.216Z,65.8
2017-09-07T01:06:38.939Z,65.8
2017-09-07T01:07:41.321Z,66
2017-09-07T01:08:43.714Z,66.1
2017-09-07T01:09:46.107Z,65.9
2017-09-07T01:10:48.503Z,66.2
2017-09-07T01:11:50.895Z,66.3
2017-09-07T01:12:53.288Z,66.2
2017-09-07T01:13:55.676Z,66.1
2017-09-07T01:14:58.063Z,66.1
2017-09-07T01:16:00.451Z,65.7
2017-09-07T01:17:02.851Z,66.1
2017-09-07T01:18:05.236Z,66
2017-09-07T01:19:07.633Z,66.1
2017-09-07T01:20:10.025Z,66.1
2017-09-07T01:21:12.420Z,65.8
2017-09-07T01:22:15.170Z,66
2017-09-07T01:23:17.563Z,66.2
2017-09-07T01:24:19.949Z,66.2
2017-09-07T01:25:22.339Z,66
2017-09-07T01:26:24.729Z,66.3
2017-09-07T01:27:27.128Z,65.9
2017-09-07T01:28:29.516Z,66.3
2017-09-07T01:29:31.901Z,66.3
2017-09-07T01:30:34.293Z,66.2
2017-09-07T01:31:36.688Z,65.9
2017-09-07T01:32:39.076Z,66.3
2017-09-07T01:33:41.474Z,65.9
2017-09-07T01:34:43.863Z,66
2017-09-07T01:35:46.253Z,66.4
2017-09-07T01:36:48.648Z,66
2017-09-07T01:37:51.040Z,65.8
2017-09-07T01:38:53.433Z,66.2
2017-09-07T01:39:55.834Z,65.9
2017-09-07T01:40:58.220Z,66.2
2017-09-07T01:42:00.612Z,65.9
2017-09-07T01:43:03.002Z,65.9
2017-09-07T01:44:05.392Z,65.8
2017-09-07T01:45:07.795Z,65.9
2017-09-07T01:46:10.188Z,66.2
2017-09-07T01:47:12.584Z,66
2017-09-07T01:48:14.985Z,66.2
2017-09-07T01:49:17.377Z,66
2017-09-07T01:50:19.770Z,66.2
2017-09-07T01:51:22.168Z,66.3
2017-09-07T01:52:24.548Z,65.9
2017-09-07T01:53:26.938Z,65.7
2017-09-07T01:54:29.325Z,66.2
2017-09-07T01:55:31.716Z,66.3
2017-09-07T01:56:34.111Z,65.8
2017-09-07T01:57:36.500Z,66
2017-09-07T01:58:38.887Z,66.2
2017-09-07T01:59:41.288Z,66.4
2017-09-07T02:00:43.678Z,65.9
2017-09-07T02:01:46.075Z,66.3
2017-09-07T02:02:48.469Z,66.4
2017-09-07T02:03:50.858Z,66.2
2017-09-07T02:04:53.249Z,66.3
2017-09-07T02:05:55.650Z,66.4
2017-09-07T02:06:58.035Z,65.9
2017-09-07T02:08:00.430Z,66.3
2017-09-07T02:09:02.827Z,66.3
2017-09-07T02:10:05.215Z,66.2
2017-09-07T02:11:07.605Z,66.3
2017-09-07T02:12:10.001Z,66.2
2017-09-07T02:13:12.388Z,66.4
2017-09-07T02:14:14.776Z,66
2017-09-07T02:15:17.173Z,65.9
2017-09-07T02:16:19.571Z,66
2017-09-07T02:17:21.961Z,66.1
2017-09-07T02:18:24.354Z,66.1
2017-09-07T02:19:27.085Z,66.2
2017-09-07T02:20:29.475Z,66
2017-09-07T02:21:31.867Z,65.8
2017-09-07T02:22:34.265Z,66.2
2017-09-07T02:23:36.644Z,66.3
2017-09-07T02:24:39.040Z,66
2017-09-07T02:25:41.440Z,65.9
2017-09-07T02:26:43.834Z,66.3
2017-09-07T02:27:46.222Z,66.4
2017-09-07T02:28:48.610Z,66.3
2017-09-07T02:29:50.990Z,66.4
2017-09-07T02:30:53.396Z,66.3
2017-09-07T02:31:55.786Z,66.3
2017-09-07T02:32:58.173Z,66.1
2017-09-07T02:34:00.570Z,66.2
2017-09-07T02:35:02.969Z,66.2
2017-09-07T02:36:05.360Z,66.1
2017-09-07T02:37:07.761Z,66.2
2017-09-07T02:38:10.144Z,66.3
2017-09-07T02:39:12.532Z,66.3
2017-09-07T02:40:14.932Z,66.4
2017-09-07T02:41:17.314Z,66.3
2017-09-07T02:42:19.714Z,66.3
2017-09-07T02:43:22.106Z,66.4
2017-09-07T02:44:24.501Z,66.4
2017-09-07T02:45:26.892Z,66.4
2017-09-07T02:46:29.272Z,66.4
2017-09-07T02:47:31.667Z,66.4
2017-09-07T02:48:34.056Z,66.4
2017-09-07T02:49:36.443Z,65.9
2017-09-07T02:50:38.841Z,66.3
2017-09-07T02:51:41.232Z,66.3
2017-09-07T02:52:43.627Z,66.4
2017-09-07T02:53:46.026Z,65.9
2017-09-07T02:54:48.419Z,66.3
2017-09-07T02:55:50.804Z,66.3
2017-09-07T02:56:53.206Z,65.9
2017-09-07T02:57:55.596Z,66.3
2017-09-07T02:58:57.983Z,66.4
2017-09-07T03:00:00.381Z,66.3
2017-09-07T03:01:02.764Z,66.3
2017-09-07T03:02:05.162Z,66.3
2017-09-07T03:03:07.902Z,66.3
2017-09-07T03:04:10.280Z,66.4
2017-09-07T03:05:12.671Z,66
2017-09-07T03:06:15.064Z,66.4
2017-09-07T03:07:17.452Z,66.4
2017-09-07T03:08:19.847Z,66.3
2017-09-07T03:09:22.237Z,66.2
2017-09-07T03:10:24.627Z,66.3
2017-09-07T03:11:27.013Z,66.4
2017-09-07T03:12:29.404Z,66.4
2017-09-07T03:13:31.809Z,66.4
2017-09-07T03:14:34.192Z,66.3
2017-09-07T03:15:36.577Z,66.3
2017-09-07T03:16:38.970Z,66.2
2017-09-07T03:17:41.363Z,65.9
2017-09-07T03:18:43.761Z,66.3
2017-09-07T03:19:46.151Z,66.4
2017-09-07T03:20:48.535Z,66.4
2017-09-07T03:21:50.937Z,66.4
2017-09-07T03:22:53.330Z,66.4
2017-09-07T03:23:55.727Z,66.4
2017-09-07T03:24:58.117Z,66.1
2017-09-07T03:26:00.503Z,66.4
2017-09-07T03:27:03.225Z,66
2017-09-07T03:28:06.303Z,66.4
2017-09-07T03:29:08.689Z,66.5
2017-09-07T03:30:11.077Z,66.5
2017-09-07T03:31:13.471Z,66.6
2017-09-07T03:32:15.873Z,66.6
2017-09-07T03:33:18.262Z,66.8
2017-09-07T03:34:20.656Z,66.7
2017-09-07T03:35:23.042Z,66.7
2017-09-07T03:36:25.434Z,66.7
2017-09-07T03:37:27.831Z,66.8
2017-09-07T03:38:30.226Z,66.8
2017-09-07T03:39:32.607Z,66.8
2017-09-07T03:40:34.987Z,66.8
2017-09-07T03:41:37.383Z,66.8
2017-09-07T03:42:39.774Z,66.8
2017-09-07T03:43:42.162Z,66.9
2017-09-07T03:44:44.559Z,66.8
2017-09-07T03:45:47.290Z,66.8
2017-09-07T03:46:49.667Z,66.9
2017-09-07T03:47:52.073Z,66.4
2017-09-07T03:48:54.462Z,66.9
2017-09-07T03:49:56.862Z,66.9
2017-09-07T03:50:59.630Z,66.9
2017-09-07T03:52:01.982Z,67
2017-09-07T03:53:04.376Z,67
2017-09-07T03:54:06.776Z,66.9
2017-09-07T03:55:09.513Z,66.9
2017-09-07T03:56:11.906Z,66.9
2017-09-07T03:57:14.301Z,67
2017-09-07T03:58:16.691Z,67
2017-09-07T03:59:19.090Z,66.9
2017-09-07T04:00:21.826Z,66.9
2017-09-07T04:01:24.209Z,67
2017-09-07T04:02:26.611Z,66.9
2017-09-07T04:03:28.991Z,66.9
2017-09-07T04:04:31.385Z,66.9
2017-09-07T04:05:33.773Z,66.9
2017-09-07T04:06:36.504Z,66.9
2017-09-07T04:07:38.897Z,66.9
2017-09-07T04:08:41.296Z,66.9
2017-09-07T04:09:43.686Z,66.8
2017-09-07T04:10:46.081Z,66.8
2017-09-07T04:11:48.468Z,66.6
2017-09-07T04:12:50.872Z,66.8
2017-09-07T04:13:53.264Z,66.8
2017-09-07T04:14:55.654Z,66.7
2017-09-07T04:15:58.046Z,66.9
2017-09-07T04:17:00.437Z,66.9
2017-09-07T04:18:02.830Z,66.9
2017-09-07T04:19:05.227Z,66.5
2017-09-07T04:20:07.615Z,66.8
2017-09-07T04:21:10.359Z,66.9
2017-09-07T04:22:12.759Z,67
2017-09-07T04:23:15.147Z,66.9
2017-09-07T04:24:17.531Z,66.9
2017-09-07T04:25:19.931Z,66.9
2017-09-07T04:26:22.328Z,66.9
2017-09-07T04:27:24.729Z,66.9
2017-09-07T04:28:27.119Z,67
2017-09-07T04:29:29.510Z,67
2017-09-07T04:30:31.899Z,67
2017-09-07T04:31:34.288Z,67
2017-09-07T04:32:37.037Z,67
2017-09-07T04:33:39.424Z,66.9
2017-09-07T04:34:41.810Z,66.9
2017-09-07T04:35:44.203Z,66.8
2017-09-07T04:36:46.624Z,66.7
2017-09-07T04:37:48.993Z,66.6
2017-09-07T04:38:51.393Z,66.8
2017-09-07T04:39:53.787Z,66.8
2017-09-07T04:40:56.183Z,66.7
2017-09-07T04:41:58.571Z,66.6
2017-09-07T04:43:00.958Z,66.6
2017-09-07T04:44:03.362Z,66.7
2017-09-07T04:45:05.755Z,66.8
2017-09-07T04:46:08.146Z,66.6
2017-09-07T04:47:10.539Z,66.7
2017-09-07T04:48:12.931Z,66.5
2017-09-07T04:49:15.327Z,66.6
2017-09-07T04:50:17.725Z,66.5
2017-09-07T04:51:20.107Z,66.3
2017-09-07T04:52:22.494Z,66.6
2017-09-07T04:53:24.899Z,66.6
2017-09-07T04:54:27.283Z,66.2
2017-09-07T04:55:29.684Z,66.6
2017-09-07T04:56:32.075Z,66.6
2017-09-07T04:57:34.464Z,66.6
2017-09-07T04:58:36.856Z,66.3
2017-09-07T04:59:39.249Z,66.6
2017-09-07T05:00:41.634Z,66.5
2017-09-07T05:01:44.038Z,66.5
2017-09-07T05:02:46.417Z,66.1
2017-09-07T05:03:48.808Z,66.5
2017-09-07T05:04:51.206Z,66.5
2017-09-07T05:05:53.938Z,66.4
2017-09-07T05:06:56.333Z,66.4
2017-09-07T05:07:58.733Z,66.5
2017-09-07T05:09:01.124Z,66.5
2017-09-07T05:10:04.192Z,66.5
2017-09-07T05:11:06.576Z,66.6
2017-09-07T05:12:08.966Z,66.6
2017-09-07T05:13:11.696Z,66.6
2017-09-07T05:14:14.088Z,66.6
2017-09-07T05:15:16.492Z,66.7
2017-09-07T05:16:18.883Z,66.7
2017-09-07T05:17:21.267Z,66.8
2017-09-07T05:18:23.662Z,66.7
2017-09-07T05:19:26.053Z,66.4
2017-09-07T05:20:28.443Z,66.4
2017-09-07T05:21:30.834Z,66.5
2017-09-07T05:22:33.224Z,66.5
2017-09-07T05:23:35.615Z,66.5
2017-09-07T05:24:38.009Z,66.1
2017-09-07T05:25:40.400Z,66.4
2017-09-07T05:26:42.791Z,66.3
2017-09-07T05:27:45.187Z,66.4
2017-09-07T05:28:47.571Z,66.1
2017-09-07T05:29:49.968Z,66.3
2017-09-07T05:30:52.362Z,66
2017-09-07T05:31:54.752Z,66
2017-09-07T05:32:57.146Z,66.3
2017-09-07T05:33:59.533Z,66
2017-09-07T05:35:01.922Z,66.1
2017-09-07T05:36:05.013Z,66.3
2017-09-07T05:37:07.406Z,66.3
2017-09-07T05:38:09.795Z,66.3
2017-09-07T05:39:12.196Z,66
2017-09-07T05:40:14.587Z,66.3
2017-09-07T05:41:16.972Z,66.4
2017-09-07T05:42:19.362Z,66.4
2017-09-07T05:43:21.765Z,66.5
2017-09-07T05:44:24.163Z,66.4
2017-09-07T05:45:26.564Z,66.3
2017-09-07T05:46:28.951Z,66.4
2017-09-07T05:47:31.342Z,66.5
2017-09-07T05:48:33.740Z,66.5
2017-09-07T05:49:36.465Z,66.3
2017-09-07T05:50:38.851Z,66.4
2017-09-07T05:51:41.239Z,66.4
2017-09-07T05:52:43.634Z,66.4
2017-09-07T05:53:46.019Z,66.3
2017-09-07T05:54:48.410Z,66.1
2017-09-07T05:55:50.804Z,66.3
2017-09-07T05:56:53.199Z,66.1
2017-09-07T05:57:55.617Z,66
2017-09-07T05:58:57.993Z,66
2017-09-07T06:00:00.388Z,66.1
2017-09-07T06:01:02.783Z,65.9
2017-09-07T06:02:05.170Z,65.9
2017-09-07T06:03:07.563Z,65.8
2017-09-07T06:04:10.292Z,65.9
2017-09-07T06:05:12.684Z,66
2017-09-07T06:06:15.423Z,65.9
2017-09-07T06:07:18.158Z,66
2017-09-07T06:08:20.902Z,66
2017-09-07T06:09:23.300Z,65.9
2017-09-07T06:10:25.690Z,66
2017-09-07T06:11:28.078Z,65.8
2017-09-07T06:12:30.473Z,65.8
2017-09-07T06:13:32.866Z,65.9
2017-09-07T06:14:35.264Z,65.9
2017-09-07T06:15:37.644Z,66
2017-09-07T06:16:40.416Z,65.9
2017-09-07T06:17:42.802Z,65.9
2017-09-07T06:18:45.192Z,66.1
2017-09-07T06:19:47.584Z,66.1
2017-09-07T06:20:49.975Z,66.1
2017-09-07T06:21:52.361Z,66.1
2017-09-07T06:22:54.761Z,66.1
2017-09-07T06:23:57.144Z,66.1
2017-09-07T06:24:59.545Z,66.1
2017-09-07T06:26:01.948Z,66
2017-09-07T06:27:04.342Z,66.1
2017-09-07T06:28:06.772Z,66.1
2017-09-07T06:29:09.133Z,66.2
2017-09-07T06:30:11.520Z,66.2
2017-09-07T06:31:13.918Z,66.2
2017-09-07T06:32:16.318Z,66.2
2017-09-07T06:33:18.698Z,66.2
2017-09-07T06:34:21.104Z,66.3
2017-09-07T06:35:23.502Z,66.3
2017-09-07T06:36:25.897Z,66.4
2017-09-07T06:37:28.297Z,66.4
2017-09-07T06:38:30.697Z,66.2
2017-09-07T06:39:33.092Z,66
2017-09-07T06:40:35.488Z,66.2
2017-09-07T06:41:37.882Z,66.1
2017-09-07T06:42:40.278Z,66.3
2017-09-07T06:43:42.670Z,66.2
2017-09-07T06:44:45.066Z,66.2
2017-09-07T06:45:47.464Z,66.3
2017-09-07T06:46:49.864Z,66.3
2017-09-07T06:47:52.259Z,66.1
2017-09-07T06:48:54.654Z,66.1
2017-09-07T06:49:57.060Z,65.9
2017-09-07T06:50:59.454Z,65.8
2017-09-07T06:52:01.851Z,65.7
2017-09-07T06:53:04.248Z,65.8
2017-09-07T06:54:06.645Z,65.9
2017-09-07T06:55:09.037Z,66
2017-09-07T06:56:11.428Z,66
2017-09-07T06:57:13.819Z,66
2017-09-07T06:58:16.213Z,65.8
2017-09-07T06:59:18.623Z,65.7
2017-09-07T07:00:21.017Z,65.6
2017-09-07T07:01:23.407Z,65.6
2017-09-07T07:02:25.802Z,65.6
2017-09-07T07:03:28.202Z,65.6
2017-09-07T07:04:30.600Z,65.8
2017-09-07T07:05:33.003Z,65.6
2017-09-07T07:06:35.396Z,65.7
2017-09-07T07:07:37.799Z,65.7
2017-09-07T07:08:40.200Z,65.6
2017-09-07T07:09:42.599Z,65.4
2017-09-07T07:10:44.996Z,65.3
2017-09-07T07:11:47.405Z,65.3
2017-09-07T07:12:49.798Z,65.2
2017-09-07T07:13:52.529Z,65.2
2017-09-07T07:14:54.933Z,65.1
2017-09-07T07:15:57.323Z,65
2017-09-07T07:16:59.730Z,65
2017-09-07T07:18:02.121Z,65
2017-09-07T07:19:04.514Z,65
2017-09-07T07:20:06.910Z,65
2017-09-07T07:21:09.316Z,64.9
2017-09-07T07:22:12.065Z,64.8
2017-09-07T07:23:14.475Z,64.5
2017-09-07T07:24:16.867Z,64.4
2017-09-07T07:25:19.259Z,64.6
2017-09-07T07:26:21.654Z,64.6
2017-09-07T07:27:24.048Z,64.6
2017-09-07T07:28:26.448Z,64.4
2017-09-07T07:29:28.850Z,64.4
2017-09-07T07:30:31.236Z,64.4
2017-09-07T07:31:33.637Z,64.3
2017-09-07T07:32:36.031Z,64.1
2017-09-07T07:33:38.435Z,63.9
2017-09-07T07:34:40.832Z,64.1
2017-09-07T07:35:43.243Z,64.1
2017-09-07T07:36:45.640Z,64.3
2017-09-07T07:37:48.031Z,64.2
2017-09-07T07:38:50.424Z,64.2
2017-09-07T07:39:52.830Z,64.3
2017-09-07T07:40:55.224Z,64.4
2017-09-07T07:41:57.615Z,64.1
2017-09-07T07:43:00.008Z,64
2017-09-07T07:44:02.401Z,64.1
2017-09-07T07:45:04.807Z,64
2017-09-07T07:46:07.208Z,63.9
2017-09-07T07:47:09.602Z,64
2017-09-07T07:48:12.012Z,63.9
2017-09-07T07:49:14.407Z,63.7
2017-09-07T07:50:16.803Z,63.6
2017-09-07T07:51:19.564Z,63.7
2017-09-07T07:52:21.962Z,63.9
2017-09-07T07:53:24.357Z,64
2017-09-07T07:54:26.764Z,63.7
2017-09-07T07:55:29.162Z,63.7
2017-09-07T07:56:31.561Z,63.9
2017-09-07T07:57:33.960Z,63.9
2017-09-07T07:58:36.360Z,63.9
2017-09-07T07:59:38.756Z,63.7
2017-09-07T08:00:41.163Z,63.6
2017-09-07T08:01:43.552Z,63.5
2017-09-07T08:02:45.952Z,63.4
2017-09-07T08:03:48.355Z,63.3
2017-09-07T08:04:51.091Z,63.3
2017-09-07T08:05:53.485Z,63.2
2017-09-07T08:06:55.882Z,63
2017-09-07T08:07:58.282Z,63.1
2017-09-07T08:09:00.676Z,62.9
2017-09-07T08:10:03.079Z,62.7
2017-09-07T08:11:05.484Z,62.9
2017-09-07T08:12:07.879Z,62.9
2017-09-07T08:13:10.273Z,62.7
2017-09-07T08:14:13.021Z,62.9
2017-09-07T08:15:15.423Z,62.9
2017-09-07T08:16:17.821Z,62.9
2017-09-07T08:17:20.221Z,63
2017-09-07T08:18:22.969Z,63
2017-09-07T08:19:25.364Z,63
2017-09-07T08:20:27.767Z,63
2017-09-07T08:21:30.157Z,63.1
2017-09-07T08:22:32.575Z,63
2017-09-07T08:23:34.973Z,63.1
2017-09-07T08:24:37.365Z,63.3
2017-09-07T08:25:39.773Z,63.3
2017-09-07T08:26:42.510Z,63.5
2017-09-07T08:27:44.909Z,63.5
2017-09-07T08:28:47.313Z,63.6
2017-09-07T08:29:49.706Z,63.5
2017-09-07T08:30:52.105Z,63.6
2017-09-07T08:31:54.845Z,63.6
2017-09-07T08:32:57.232Z,63.7
2017-09-07T08:33:59.635Z,63.6
2017-09-07T08:35:02.034Z,63.5
2017-09-07T08:36:04.432Z,63.6
2017-09-07T08:37:06.822Z,63.7
2017-09-07T08:38:09.227Z,63.8
2017-09-07T08:39:11.617Z,63.9
2017-09-07T08:40:14.015Z,63.9
2017-09-07T08:41:16.416Z,64
2017-09-07T08:42:18.811Z,64.1
2017-09-07T08:43:22.806Z,64.1
2017-09-07T08:44:25.200Z,64.1
2017-09-07T08:45:27.596Z,64.1
2017-09-07T08:46:29.996Z,64.2
2017-09-07T08:47:32.444Z,64.1
2017-09-07T08:48:34.997Z,64.2
2017-09-07T08:49:37.405Z,64.3
2017-09-07T08:50:39.800Z,64.2
2017-09-07T08:51:42.189Z,64.1
2017-09-07T08:52:44.588Z,63.8
2017-09-07T08:53:47.418Z,63.7
2017-09-07T08:54:49.818Z,63.9
2017-09-07T08:55:52.224Z,64
2017-09-07T08:57:01.303Z,63.9
2017-09-07T08:58:16.626Z,63.7
2017-09-07T08:59:19.025Z,63.5
2017-09-07T09:00:21.769Z,63.5
2017-09-07T09:01:24.511Z,63.4
2017-09-07T09:02:26.910Z,63.4
2017-09-07T09:03:29.960Z,63.3
2017-09-07T09:04:35.206Z,63.5
2017-09-07T09:05:42.594Z,63.4
2017-09-07T09:06:58.055Z,63.3
2017-09-07T09:08:05.741Z,63.1
2017-09-07T09:09:11.993Z,63
2017-09-07T09:10:14.389Z,63.1
2017-09-07T09:11:16.788Z,63.2
2017-09-07T09:12:19.195Z,63.2
2017-09-07T09:13:21.610Z,63.2
2017-09-07T09:14:27.149Z,63
2017-09-07T09:15:29.664Z,62.8
2017-09-07T09:16:32.095Z,62.8
2017-09-07T09:17:34.496Z,62.7
2017-09-07T09:18:36.896Z,62.5
2017-09-07T09:19:39.321Z,62.6
2017-09-07T09:20:41.711Z,62.9
2017-09-07T09:21:44.106Z,62.9
2017-09-07T09:22:46.499Z,62.8
2017-09-07T09:23:48.897Z,62.6
2017-09-07T09:24:51.294Z,62.6
2017-09-07T09:25:53.688Z,62.6
2017-09-07T09:26:56.429Z,62.4
2017-09-07T09:27:58.848Z,62.4
2017-09-07T09:29:01.250Z,62.5
2017-09-07T09:30:03.652Z,62.6
2017-09-07T09:31:06.388Z,62.5
2017-09-07T09:32:08.791Z,62.4
2017-09-07T09:33:11.193Z,62.4
2017-09-07T09:34:13.589Z,62.4
2017-09-07T09:35:15.981Z,62.2
2017-09-07T09:36:18.382Z,62.2
2017-09-07T09:37:22.186Z,62.2
2017-09-07T09:38:33.945Z,62.4
2017-09-07T09:39:36.329Z,62.3
2017-09-07T09:40:38.730Z,62.3
2017-09-07T09:41:41.124Z,62.3
2017-09-07T09:42:43.524Z,62.3
2017-09-07T09:43:45.929Z,62
2017-09-07T09:44:48.318Z,61.9
2017-09-07T09:45:50.819Z,62
2017-09-07T09:46:53.563Z,62.1
2017-09-07T09:47:55.952Z,62.1
2017-09-07T09:48:58.354Z,62.3
2017-09-07T09:50:01.091Z,62.3
2017-09-07T09:51:03.479Z,62.1
2017-09-07T09:52:05.887Z,62.3
2017-09-07T09:53:08.290Z,62.3
2017-09-07T09:54:11.016Z,61.9
2017-09-07T09:55:13.415Z,62.3
2017-09-07T09:56:15.819Z,62.3
2017-09-07T09:57:18.216Z,62.4
2017-09-07T09:58:20.617Z,62.2
2017-09-07T09:59:23.003Z,62.1
2017-09-07T10:00:25.743Z,62.1
2017-09-07T10:01:28.154Z,62.1
2017-09-07T10:02:30.545Z,61.6
2017-09-07T10:03:32.947Z,61.7
2017-09-07T10:04:35.354Z,61.7
2017-09-07T10:05:37.745Z,62
2017-09-07T10:06:40.143Z,61.7
2017-09-07T10:07:42.541Z,61.5
2017-09-07T10:08:44.945Z,61.4
2017-09-07T10:09:47.365Z,61.1
2017-09-07T10:10:49.753Z,61.3
2017-09-07T10:11:52.162Z,61.5
2017-09-07T10:12:54.563Z,61.6
2017-09-07T10:13:56.963Z,61.8
2017-09-07T10:14:59.364Z,61.6
2017-09-07T10:16:01.760Z,61
2017-09-07T10:17:04.159Z,61.2
2017-09-07T10:18:06.570Z,61.2
2017-09-07T10:19:08.965Z,61.2
2017-09-07T10:20:11.366Z,61
2017-09-07T10:21:13.769Z,60.6
2017-09-07T10:22:16.170Z,60.7
2017-09-07T10:23:18.573Z,60.5
2017-09-07T10:24:20.980Z,60.6
2017-09-07T10:25:23.372Z,60.5
2017-09-07T10:26:25.774Z,60.2
2017-09-07T10:27:28.178Z,60
2017-09-07T10:28:30.578Z,59.3
2017-09-07T10:29:32.972Z,59.2
2017-09-07T10:30:35.375Z,59.2
2017-09-07T10:31:37.777Z,59.3
2017-09-07T10:32:40.189Z,59.5
2017-09-07T10:33:42.593Z,59.4
2017-09-07T10:34:45.323Z,59
2017-09-07T10:35:47.724Z,59
2017-09-07T10:36:50.117Z,59.1
2017-09-07T10:37:52.521Z,59
2017-09-07T10:38:54.921Z,59.1
2017-09-07T10:39:57.320Z,59.4
2017-09-07T10:40:59.726Z,59.3
2017-09-07T10:42:02.135Z,59.3
2017-09-07T10:43:04.532Z,59.4
2017-09-07T10:44:06.946Z,59.2
2017-09-07T10:45:09.341Z,59
2017-09-07T10:46:11.740Z,58.9
2017-09-07T10:47:14.144Z,59.3
2017-09-07T10:48:16.542Z,59.9
2017-09-07T10:49:18.945Z,60
2017-09-07T10:50:21.354Z,60.4
2017-09-07T10:51:23.744Z,60.6
2017-09-07T10:52:26.152Z,60.7
2017-09-07T10:53:28.554Z,60.3
2017-09-07T10:54:30.948Z,59.5
2017-09-07T10:55:33.354Z,59.6
2017-09-07T10:56:35.759Z,60
2017-09-07T10:57:38.152Z,60
2017-09-07T10:58:40.568Z,59.2
2017-09-07T10:59:42.961Z,60
2017-09-07T11:00:45.359Z,59.2
2017-09-07T11:01:47.764Z,59.9
2017-09-07T11:02:50.168Z,60.3
2017-09-07T11:03:52.566Z,59.8
2017-09-07T11:04:54.969Z,58.9
2017-09-07T11:05:57.373Z,58
2017-09-07T11:06:59.777Z,58
2017-09-07T11:08:02.170Z,57.8
2017-09-07T11:09:04.581Z,57.1
2017-09-07T11:10:06.994Z,55.8
2017-09-07T11:11:09.400Z,55.3
2017-09-07T11:12:11.804Z,55.4
2017-09-07T11:13:14.210Z,56.2
2017-09-07T11:14:16.614Z,55.9
2017-09-07T11:15:19.019Z,55.8
2017-09-07T11:16:21.423Z,55.7
2017-09-07T11:17:24.151Z,55.2
2017-09-07T11:18:26.560Z,55.2
2017-09-07T11:19:28.971Z,55
2017-09-07T11:20:31.711Z,54.8
2017-09-07T11:21:34.462Z,54.7
2017-09-07T11:22:36.860Z,54.7
2017-09-07T11:23:39.258Z,54.5
2017-09-07T11:24:41.674Z,54.4
2017-09-07T11:25:44.417Z,54.3
2017-09-07T11:26:46.815Z,54.2
2017-09-07T11:27:49.221Z,54.6
2017-09-07T11:28:52.297Z,54.9
2017-09-07T11:29:54.700Z,55.4
2017-09-07T11:30:57.105Z,55.8
2017-09-07T11:31:59.839Z,55.5
2017-09-07T11:33:02.238Z,55.5
2017-09-07T11:34:04.652Z,55.8
2017-09-07T11:35:07.059Z,55.6
2017-09-07T11:36:09.791Z,55.8
2017-09-07T11:37:12.198Z,56
2017-09-07T11:38:14.605Z,55.8
2017-09-07T11:39:17.000Z,56
2017-09-07T11:40:19.403Z,54.9
2017-09-07T11:41:21.809Z,55
2017-09-07T11:42:24.207Z,55.1
2017-09-07T11:43:26.973Z,55.2
2017-09-07T11:44:29.377Z,55.3
2017-09-07T11:45:31.778Z,55.3
2017-09-07T11:46:34.186Z,55.3
2017-09-07T11:47:36.591Z,55.1
2017-09-07T11:48:38.998Z,54.6
2017-09-07T11:49:41.409Z,54.4
2017-09-07T11:50:43.807Z,53.9
2017-09-07T11:51:46.216Z,53.9
2017-09-07T11:52:48.621Z,53.5
2017-09-07T11:53:51.024Z,53.2
2017-09-07T11:54:53.429Z,53.2
2017-09-07T11:55:55.841Z,53.3
2017-09-07T11:56:58.245Z,53.2
2017-09-07T11:58:00.660Z,53.2
2017-09-07T11:59:03.118Z,53.2
2017-09-07T12:00:05.907Z,52.9
2017-09-07T12:01:08.316Z,52.5
2017-09-07T12:02:10.719Z,52.4
2017-09-07T12:03:13.122Z,52.7
2017-09-07T12:04:15.527Z,53.1
2017-09-07T12:05:17.941Z,53.3
2017-09-07T12:06:20.354Z,53.5
2017-09-07T12:07:22.758Z,53.7
2017-09-07T12:08:25.162Z,53.8
2017-09-07T12:09:27.565Z,53.9
2017-09-07T12:10:29.972Z,54
2017-09-07T12:11:32.373Z,53.6
2017-09-07T12:12:34.776Z,53.4
2017-09-07T12:13:37.181Z,53.5
2017-09-07T12:14:39.928Z,53.5
2017-09-07T12:15:42.335Z,53.5
2017-09-07T12:16:44.738Z,53.5
2017-09-07T12:17:47.132Z,53.5
2017-09-07T12:18:49.539Z,53.6
2017-09-07T12:19:51.946Z,53.3
2017-09-07T12:20:54.349Z,53.4
2017-09-07T12:21:56.744Z,53.6
2017-09-07T12:22:59.488Z,53.9
2017-09-07T12:24:01.884Z,54
2017-09-07T12:25:04.294Z,54
2017-09-07T12:26:06.703Z,54
2017-09-07T12:27:09.103Z,53.9
2017-09-07T12:28:11.507Z,53.9
2017-09-07T12:29:13.916Z,53.9
2017-09-07T12:30:16.309Z,53.8
2017-09-07T12:31:18.717Z,53.8
2017-09-07T12:32:21.112Z,53.8
2017-09-07T12:33:23.514Z,53.8
2017-09-07T12:34:25.917Z,53.9
2017-09-07T12:35:28.322Z,53.8
2017-09-07T12:36:30.731Z,53.8
2017-09-07T12:37:33.136Z,54.3
2017-09-07T12:38:35.535Z,54.5
2017-09-07T12:39:37.940Z,54.5
2017-09-07T12:40:40.688Z,54.5
2017-09-07T12:41:43.088Z,54.4
2017-09-07T12:42:45.486Z,54.1
2017-09-07T12:43:47.888Z,54
2017-09-07T12:44:50.627Z,54
2017-09-07T12:45:53.197Z,54
2017-09-07T12:46:55.759Z,54
2017-09-07T12:47:58.159Z,54
2017-09-07T12:49:00.577Z,53.9
2017-09-07T12:50:02.972Z,53.8
2017-09-07T12:51:05.372Z,53.7
2017-09-07T12:52:07.780Z,53.7
2017-09-07T12:53:10.182Z,53.6
2017-09-07T12:54:12.583Z,53.6
2017-09-07T12:55:14.985Z,54
2017-09-07T12:56:17.385Z,54
2017-09-07T12:57:19.791Z,53.8
2017-09-07T12:58:22.203Z,53.9
2017-09-07T12:59:24.936Z,53.8
2017-09-07T13:00:27.335Z,54.2
2017-09-07T13:01:29.743Z,54.4
2017-09-07T13:02:32.141Z,54.3
2017-09-07T13:03:34.537Z,54.4
2017-09-07T13:04:36.949Z,54.4
2017-09-07T13:05:39.696Z,54.2
2017-09-07T13:06:42.444Z,53.9
2017-09-07T13:07:44.845Z,53.6
2017-09-07T13:08:47.253Z,53.6
2017-09-07T13:09:49.650Z,53.6
2017-09-07T13:10:52.065Z,53.5
2017-09-07T13:11:54.794Z,53.6
2017-09-07T13:12:57.194Z,53.5
2017-09-07T13:13:59.599Z,53.5
2017-09-07T13:15:02.002Z,53.5
2017-09-07T13:16:04.410Z,53.4
2017-09-07T13:17:06.815Z,53.4
2017-09-07T13:18:09.218Z,53.6
2017-09-07T13:19:11.623Z,53.5
2017-09-07T13:20:14.022Z,53.5
2017-09-07T13:21:16.416Z,53.6
2017-09-07T13:22:18.819Z,53.7
2017-09-07T13:23:21.222Z,53.7
2017-09-07T13:24:23.965Z,53.7
2017-09-07T13:25:26.362Z,53.8
2017-09-07T13:26:28.763Z,53.8
2017-09-07T13:27:31.181Z,53.8
2017-09-07T13:28:33.588Z,53.8
2017-09-07T13:29:35.996Z,53.9
2017-09-07T13:30:38.404Z,53.9
2017-09-07T13:31:40.803Z,53.9
2017-09-07T13:32:43.216Z,54
2017-09-07T13:33:45.611Z,54
2017-09-07T13:34:48.024Z,54
2017-09-07T13:35:50.422Z,54.2
2017-09-07T13:36:52.827Z,53.7
2017-09-07T13:37:55.223Z,53.6
2017-09-07T13:38:57.631Z,53.2
2017-09-07T13:40:00.038Z,52.8
2017-09-07T13:41:02.795Z,52.6
2017-09-07T13:42:05.189Z,52.4
2017-09-07T13:43:07.595Z,51.7
2017-09-07T13:44:09.996Z,51.8
2017-09-07T13:45:12.409Z,51.6
2017-09-07T13:46:14.810Z,51.6
2017-09-07T13:47:17.207Z,51.5
2017-09-07T13:48:19.623Z,51.8
2017-09-07T13:49:23.224Z,51.7
2017-09-07T13:50:27.937Z,51.7
2017-09-07T13:51:30.339Z,52
2017-09-07T13:52:32.745Z,52.2
2017-09-07T13:53:35.152Z,52.4
2017-09-07T13:54:37.930Z,52.6
2017-09-07T13:55:40.332Z,52.9
2017-09-07T13:56:42.742Z,52.8
2017-09-07T13:57:45.135Z,52.6
2017-09-07T13:58:47.547Z,52.5